sensor_id;sensor_type;location;lat;lon;timestamp;P1;durP1;ratioP1;P2;durP2;ratioP2
21258;SDS011;10787;53.364;-1.480;2022-08-01T00:00:40;3.47;;;1.27;;
21258;SDS011;10787;53.364;-1.480;2022-08-01T00:03:05;4.53;;;1.63;;
21258;SDS011;10787;53.364;-1.480;2022-08-01T00:05:32;4.40;;;1.55;;
21258;SDS011;10787;53.364;-1.480;2022-08-01T00:07:58;5.85;;;1.75;;
21258;SDS011;10787;53.364;-1.480;2022-08-01T00:10:24;4.10;;;1.73;;
21258;SDS011;10787;53.364;-1.480;2022-08-01T00:12:49;4.45;;;1.50;;
21258;SDS011;10787;53.364;-1.480;2022-08-01T00:15:16;7.00;;;2.03;;
21258;SDS011;10787;53.364;-1.480;2022-08-01T00:17:42;5.72;;;1.88;;
21258;SDS011;10787;53.364;-1.480;2022-08-01T00:20:09;7.57;;;1.90;;
21258;SDS011;10787;53.364;-1.480;2022-08-01T00:22:38;5.53;;;1.70;;
21258;SDS011;10787;53.364;-1.480;2022-08-01T00:25:04;7.18;;;2.00;;
21258;SDS011;10787;53.364;-1.480;2022-08-01T00:27:31;3.85;;;1.70;;
21258;SDS011;10787;53.364;-1.480;2022-08-01T00:29:57;4.22;;;1.77;;
21258;SDS011;10787;53.364;-1.480;2022-08-01T00:32:23;5.53;;;1.85;;
21258;SDS011;10787;53.364;-1.480;2022-08-01T00:34:49;5.30;;;1.58;;
21258;SDS011;10787;53.364;-1.480;2022-08-01T00:37:15;5.57;;;1.70;;
21258;SDS011;10787;53.364;-1.480;2022-08-01T00:39:42;5.70;;;1.83;;
21258;SDS011;10787;53.364;-1.480;2022-08-01T00:42:08;7.38;;;1.80;;
21258;SDS011;10787;53.364;-1.480;2022-08-01T00:44:35;4.40;;;1.70;;
21258;SDS011;10787;53.364;-1.480;2022-08-01T00:47:02;5.85;;;1.90;;
21258;SDS011;10787;53.364;-1.480;2022-08-01T00:49:28;5.25;;;1.80;;
21258;SDS011;10787;53.364;-1.480;2022-08-01T00:51:56;6.57;;;1.80;;
21258;SDS011;10787;53.364;-1.480;2022-08-01T00:54:24;5.68;;;1.80;;
21258;SDS011;10787;53.364;-1.480;2022-08-01T00:56:50;4.13;;;1.88;;
21258;SDS011;10787;53.364;-1.480;2022-08-01T00:59:17;4.22;;;1.92;;
21258;SDS011;10787;53.364;-1.480;2022-08-01T01:01:45;5.07;;;1.85;;
21258;SDS011;10787;53.364;-1.480;2022-08-01T01:04:11;5.55;;;2.10;;
21258;SDS011;10787;53.364;-1.480;2022-08-01T01:12:25;4.30;;;1.95;;
21258;SDS011;10787;53.364;-1.480;2022-08-01T01:14:59;4.15;;;1.80;;
21258;SDS011;10787;53.364;-1.480;2022-08-01T01:17:45;6.40;;;1.98;;
21258;SDS011;10787;53.364;-1.480;2022-08-01T01:20:26;5.78;;;2.00;;
21258;SDS011;10787;53.364;-1.480;2022-08-01T01:28:20;7.30;;;2.20;;
21258;SDS011;10787;53.364;-1.480;2022-08-01T01:30:55;3.75;;;1.70;;
21258;SDS011;10787;53.364;-1.480;2022-08-01T01:33:25;6.57;;;2.30;;
21258;SDS011;10787;53.364;-1.480;2022-08-01T01:35:56;6.28;;;2.00;;
21258;SDS011;10787;53.364;-1.480;2022-08-01T01:38:29;4.82;;;1.98;;
21258;SDS011;10787;53.364;-1.480;2022-08-01T01:40:59;8.02;;;2.00;;
21258;SDS011;10787;53.364;-1.480;2022-08-01T01:43:27;9.18;;;1.83;;
21258;SDS011;10787;53.364;-1.480;2022-08-01T01:45:55;5.38;;;2.05;;
21258;SDS011;10787;53.364;-1.480;2022-08-01T01:48:22;9.65;;;2.28;;
21258;SDS011;10787;53.364;-1.480;2022-08-01T01:50:50;7.65;;;2.30;;
21258;SDS011;10787;53.364;-1.480;2022-08-01T01:53:18;5.30;;;2.00;;
21258;SDS011;10787;53.364;-1.480;2022-08-01T01:55:47;6.18;;;2.05;;
21258;SDS011;10787;53.364;-1.480;2022-08-01T01:58:17;4.85;;;2.00;;
21258;SDS011;10787;53.364;-1.480;2022-08-01T02:00:45;3.13;;;1.85;;
21258;SDS011;10787;53.364;-1.480;2022-08-01T02:03:12;4.63;;;1.92;;
21258;SDS011;10787;53.364;-1.480;2022-08-01T02:05:40;5.32;;;2.00;;
21258;SDS011;10787;53.364;-1.480;2022-08-01T02:08:07;2.53;;;1.67;;
21258;SDS011;10787;53.364;-1.480;2022-08-01T02:10:35;4.65;;;1.90;;
21258;SDS011;10787;53.364;-1.480;2022-08-01T02:13:03;4.35;;;1.70;;
21258;SDS011;10787;53.364;-1.480;2022-08-01T02:15:32;5.50;;;2.08;;
21258;SDS011;10787;53.364;-1.480;2022-08-01T02:18:03;6.38;;;2.00;;
21258;SDS011;10787;53.364;-1.480;2022-08-01T02:20:32;3.67;;;1.90;;
21258;SDS011;10787;53.364;-1.480;2022-08-01T02:23:08;5.35;;;2.10;;
21258;SDS011;10787;53.364;-1.480;2022-08-01T02:25:48;6.57;;;2.22;;
21258;SDS011;10787;53.364;-1.480;2022-08-01T02:30:57;5.40;;;2.10;;
21258;SDS011;10787;53.364;-1.480;2022-08-01T02:33:30;6.03;;;2.00;;
21258;SDS011;10787;53.364;-1.480;2022-08-01T02:36:19;6.85;;;2.10;;
21258;SDS011;10787;53.364;-1.480;2022-08-01T02:38:46;5.88;;;2.20;;
21258;SDS011;10787;53.364;-1.480;2022-08-01T02:41:13;6.90;;;1.90;;
21258;SDS011;10787;53.364;-1.480;2022-08-01T02:43:45;7.47;;;1.85;;
21258;SDS011;10787;53.364;-1.480;2022-08-01T02:46:20;4.07;;;1.90;;
21258;SDS011;10787;53.364;-1.480;2022-08-01T02:48:50;5.82;;;2.03;;
21258;SDS011;10787;53.364;-1.480;2022-08-01T02:51:18;10.80;;;2.50;;
21258;SDS011;10787;53.364;-1.480;2022-08-01T02:53:47;4.45;;;1.92;;
21258;SDS011;10787;53.364;-1.480;2022-08-01T02:56:15;6.60;;;2.22;;
21258;SDS011;10787;53.364;-1.480;2022-08-01T02:58:43;5.97;;;2.10;;
21258;SDS011;10787;53.364;-1.480;2022-08-01T03:01:12;6.18;;;2.03;;
21258;SDS011;10787;53.364;-1.480;2022-08-01T03:03:40;4.20;;;1.80;;
21258;SDS011;10787;53.364;-1.480;2022-08-01T03:06:06;5.70;;;1.98;;
21258;SDS011;10787;53.364;-1.480;2022-08-01T03:08:34;6.90;;;1.90;;
21258;SDS011;10787;53.364;-1.480;2022-08-01T03:11:02;6.50;;;2.03;;
21258;SDS011;10787;53.364;-1.480;2022-08-01T03:13:29;5.85;;;2.03;;
21258;SDS011;10787;53.364;-1.480;2022-08-01T03:15:56;7.38;;;2.17;;
21258;SDS011;10787;53.364;-1.480;2022-08-01T03:18:24;3.38;;;2.00;;
21258;SDS011;10787;53.364;-1.480;2022-08-01T03:20:52;7.18;;;2.25;;
21258;SDS011;10787;53.364;-1.480;2022-08-01T03:23:21;5.20;;;2.20;;
21258;SDS011;10787;53.364;-1.480;2022-08-01T03:25:48;6.05;;;2.10;;
21258;SDS011;10787;53.364;-1.480;2022-08-01T03:28:15;6.10;;;2.22;;
21258;SDS011;10787;53.364;-1.480;2022-08-01T03:30:43;4.50;;;2.03;;
21258;SDS011;10787;53.364;-1.480;2022-08-01T03:33:10;7.28;;;2.20;;
21258;SDS011;10787;53.364;-1.480;2022-08-01T03:35:37;8.20;;;1.90;;
21258;SDS011;10787;53.364;-1.480;2022-08-01T03:38:08;6.95;;;1.75;;
21258;SDS011;10787;53.364;-1.480;2022-08-01T03:40:37;6.38;;;2.15;;
21258;SDS011;10787;53.364;-1.480;2022-08-01T03:43:07;6.18;;;2.10;;
21258;SDS011;10787;53.364;-1.480;2022-08-01T03:45:40;8.30;;;2.45;;
21258;SDS011;10787;53.364;-1.480;2022-08-01T03:48:14;5.20;;;1.95;;
21258;SDS011;10787;53.364;-1.480;2022-08-01T03:50:44;6.53;;;2.33;;
21258;SDS011;10787;53.364;-1.480;2022-08-01T03:53:13;7.40;;;2.58;;
21258;SDS011;10787;53.364;-1.480;2022-08-01T03:55:41;8.35;;;2.25;;
21258;SDS011;10787;53.364;-1.480;2022-08-01T03:58:08;8.25;;;2.42;;
21258;SDS011;10787;53.364;-1.480;2022-08-01T04:00:38;8.02;;;2.17;;
21258;SDS011;10787;53.364;-1.480;2022-08-01T04:03:09;7.82;;;2.47;;
21258;SDS011;10787;53.364;-1.480;2022-08-01T04:05:35;6.35;;;2.58;;
21258;SDS011;10787;53.364;-1.480;2022-08-01T04:08:02;6.50;;;2.40;;
21258;SDS011;10787;53.364;-1.480;2022-08-01T04:10:28;7.30;;;2.40;;
21258;SDS011;10787;53.364;-1.480;2022-08-01T04:13:03;5.53;;;2.70;;
21258;SDS011;10787;53.364;-1.480;2022-08-01T04:15:29;6.15;;;2.50;;
21258;SDS011;10787;53.364;-1.480;2022-08-01T04:17:55;8.60;;;2.78;;
21258;SDS011;10787;53.364;-1.480;2022-08-01T04:20:20;5.85;;;2.50;;
21258;SDS011;10787;53.364;-1.480;2022-08-01T04:22:46;6.35;;;2.42;;
21258;SDS011;10787;53.364;-1.480;2022-08-01T04:25:15;8.23;;;2.95;;
21258;SDS011;10787;53.364;-1.480;2022-08-01T04:27:52;8.77;;;2.70;;
21258;SDS011;10787;53.364;-1.480;2022-08-01T04:30:23;4.07;;;2.30;;
21258;SDS011;10787;53.364;-1.480;2022-08-01T04:32:54;7.57;;;2.70;;
21258;SDS011;10787;53.364;-1.480;2022-08-01T04:35:20;5.30;;;2.30;;
21258;SDS011;10787;53.364;-1.480;2022-08-01T04:37:47;8.80;;;2.58;;
21258;SDS011;10787;53.364;-1.480;2022-08-01T04:40:16;6.05;;;2.40;;
21258;SDS011;10787;53.364;-1.480;2022-08-01T04:42:43;7.25;;;2.45;;
21258;SDS011;10787;53.364;-1.480;2022-08-01T04:45:10;9.43;;;2.60;;
21258;SDS011;10787;53.364;-1.480;2022-08-01T04:47:37;7.53;;;2.38;;
21258;SDS011;10787;53.364;-1.480;2022-08-01T04:50:07;9.13;;;2.38;;
21258;SDS011;10787;53.364;-1.480;2022-08-01T04:52:35;5.97;;;2.60;;
21258;SDS011;10787;53.364;-1.480;2022-08-01T04:55:02;5.50;;;2.42;;
21258;SDS011;10787;53.364;-1.480;2022-08-01T04:57:32;8.65;;;2.90;;
21258;SDS011;10787;53.364;-1.480;2022-08-01T05:00:02;9.07;;;2.90;;
21258;SDS011;10787;53.364;-1.480;2022-08-01T05:02:29;8.13;;;2.78;;
21258;SDS011;10787;53.364;-1.480;2022-08-01T05:04:55;8.07;;;2.10;;
21258;SDS011;10787;53.364;-1.480;2022-08-01T05:07:21;7.40;;;2.67;;
21258;SDS011;10787;53.364;-1.480;2022-08-01T05:09:47;8.75;;;2.50;;
21258;SDS011;10787;53.364;-1.480;2022-08-01T05:12:13;7.77;;;2.47;;
21258;SDS011;10787;53.364;-1.480;2022-08-01T05:14:39;8.57;;;2.58;;
21258;SDS011;10787;53.364;-1.480;2022-08-01T05:17:06;8.20;;;2.60;;
21258;SDS011;10787;53.364;-1.480;2022-08-01T05:19:35;8.55;;;2.80;;
21258;SDS011;10787;53.364;-1.480;2022-08-01T05:22:03;6.45;;;2.47;;
21258;SDS011;10787;53.364;-1.480;2022-08-01T05:24:31;6.55;;;2.65;;
21258;SDS011;10787;53.364;-1.480;2022-08-01T05:27:03;6.82;;;2.80;;
21258;SDS011;10787;53.364;-1.480;2022-08-01T05:29:30;8.20;;;2.90;;
21258;SDS011;10787;53.364;-1.480;2022-08-01T05:31:56;5.78;;;2.60;;
21258;SDS011;10787;53.364;-1.480;2022-08-01T05:34:22;7.78;;;2.47;;
21258;SDS011;10787;53.364;-1.480;2022-08-01T05:36:48;7.60;;;2.55;;
21258;SDS011;10787;53.364;-1.480;2022-08-01T05:39:14;7.47;;;2.67;;
21258;SDS011;10787;53.364;-1.480;2022-08-01T05:41:41;10.77;;;2.60;;
21258;SDS011;10787;53.364;-1.480;2022-08-01T05:44:07;5.75;;;2.20;;
21258;SDS011;10787;53.364;-1.480;2022-08-01T05:46:33;8.00;;;2.20;;
21258;SDS011;10787;53.364;-1.480;2022-08-01T05:49:00;7.60;;;2.47;;
21258;SDS011;10787;53.364;-1.480;2022-08-01T05:51:27;5.63;;;2.03;;
21258;SDS011;10787;53.364;-1.480;2022-08-01T05:53:54;6.53;;;2.13;;
21258;SDS011;10787;53.364;-1.480;2022-08-01T05:56:21;3.63;;;1.88;;
21258;SDS011;10787;53.364;-1.480;2022-08-01T05:58:48;6.30;;;2.13;;
21258;SDS011;10787;53.364;-1.480;2022-08-01T06:01:15;6.63;;;1.95;;
21258;SDS011;10787;53.364;-1.480;2022-08-01T06:03:42;6.53;;;2.30;;
21258;SDS011;10787;53.364;-1.480;2022-08-01T06:06:07;6.82;;;1.95;;
21258;SDS011;10787;53.364;-1.480;2022-08-01T06:08:33;5.55;;;1.90;;
21258;SDS011;10787;53.364;-1.480;2022-08-01T06:11:00;5.03;;;1.92;;
21258;SDS011;10787;53.364;-1.480;2022-08-01T06:13:27;6.95;;;1.98;;
21258;SDS011;10787;53.364;-1.480;2022-08-01T06:15:54;10.07;;;1.92;;
21258;SDS011;10787;53.364;-1.480;2022-08-01T06:18:19;8.57;;;2.20;;
21258;SDS011;10787;53.364;-1.480;2022-08-01T06:20:46;6.68;;;2.20;;
21258;SDS011;10787;53.364;-1.480;2022-08-01T06:23:12;5.45;;;1.90;;
21258;SDS011;10787;53.364;-1.480;2022-08-01T06:25:41;6.55;;;2.00;;
21258;SDS011;10787;53.364;-1.480;2022-08-01T06:28:07;7.43;;;1.80;;
21258;SDS011;10787;53.364;-1.480;2022-08-01T06:30:33;8.38;;;1.90;;
21258;SDS011;10787;53.364;-1.480;2022-08-01T06:32:59;6.35;;;1.73;;
21258;SDS011;10787;53.364;-1.480;2022-08-01T06:35:25;8.07;;;2.10;;
21258;SDS011;10787;53.364;-1.480;2022-08-01T06:37:53;6.85;;;1.98;;
21258;SDS011;10787;53.364;-1.480;2022-08-01T06:40:19;3.67;;;1.85;;
21258;SDS011;10787;53.364;-1.480;2022-08-01T06:42:45;4.50;;;1.88;;
21258;SDS011;10787;53.364;-1.480;2022-08-01T06:45:12;5.55;;;1.88;;
21258;SDS011;10787;53.364;-1.480;2022-08-01T06:47:38;6.03;;;2.03;;
21258;SDS011;10787;53.364;-1.480;2022-08-01T06:50:05;4.47;;;1.83;;
21258;SDS011;10787;53.364;-1.480;2022-08-01T06:52:33;8.88;;;1.80;;
21258;SDS011;10787;53.364;-1.480;2022-08-01T06:55:00;5.13;;;1.90;;
21258;SDS011;10787;53.364;-1.480;2022-08-01T06:57:26;7.00;;;2.17;;
21258;SDS011;10787;53.364;-1.480;2022-08-01T06:59:52;5.60;;;1.85;;
21258;SDS011;10787;53.364;-1.480;2022-08-01T07:02:19;4.78;;;1.60;;
21258;SDS011;10787;53.364;-1.480;2022-08-01T07:04:44;4.70;;;1.85;;
21258;SDS011;10787;53.364;-1.480;2022-08-01T07:07:10;7.25;;;1.88;;
21258;SDS011;10787;53.364;-1.480;2022-08-01T07:09:37;5.57;;;1.80;;
21258;SDS011;10787;53.364;-1.480;2022-08-01T07:12:06;3.33;;;1.60;;
21258;SDS011;10787;53.364;-1.480;2022-08-01T07:14:33;5.35;;;1.77;;
21258;SDS011;10787;53.364;-1.480;2022-08-01T07:16:58;8.15;;;1.70;;
21258;SDS011;10787;53.364;-1.480;2022-08-01T07:19:25;3.70;;;1.70;;
21258;SDS011;10787;53.364;-1.480;2022-08-01T07:21:52;5.15;;;1.75;;
21258;SDS011;10787;53.364;-1.480;2022-08-01T07:24:18;6.10;;;1.80;;
21258;SDS011;10787;53.364;-1.480;2022-08-01T07:26:45;5.82;;;1.90;;
21258;SDS011;10787;53.364;-1.480;2022-08-01T07:29:12;3.83;;;1.58;;
21258;SDS011;10787;53.364;-1.480;2022-08-01T07:31:38;5.10;;;1.88;;
21258;SDS011;10787;53.364;-1.480;2022-08-01T07:34:04;4.40;;;1.75;;
21258;SDS011;10787;53.364;-1.480;2022-08-01T07:36:30;4.45;;;1.85;;
21258;SDS011;10787;53.364;-1.480;2022-08-01T07:38:56;7.60;;;2.13;;
21258;SDS011;10787;53.364;-1.480;2022-08-01T07:41:22;5.72;;;2.33;;
21258;SDS011;10787;53.364;-1.480;2022-08-01T07:43:48;4.75;;;2.05;;
21258;SDS011;10787;53.364;-1.480;2022-08-01T07:46:14;3.40;;;1.40;;
21258;SDS011;10787;53.364;-1.480;2022-08-01T07:48:40;4.15;;;1.70;;
21258;SDS011;10787;53.364;-1.480;2022-08-01T07:51:06;4.15;;;1.50;;
21258;SDS011;10787;53.364;-1.480;2022-08-01T07:53:36;5.65;;;1.60;;
21258;SDS011;10787;53.364;-1.480;2022-08-01T07:56:03;6.20;;;1.58;;
21258;SDS011;10787;53.364;-1.480;2022-08-01T07:58:32;4.35;;;1.80;;
21258;SDS011;10787;53.364;-1.480;2022-08-01T08:00:59;3.75;;;1.58;;
21258;SDS011;10787;53.364;-1.480;2022-08-01T08:03:25;3.47;;;1.48;;
21258;SDS011;10787;53.364;-1.480;2022-08-01T08:05:52;5.38;;;1.70;;
21258;SDS011;10787;53.364;-1.480;2022-08-01T08:08:18;3.67;;;1.58;;
21258;SDS011;10787;53.364;-1.480;2022-08-01T08:10:44;4.85;;;1.67;;
21258;SDS011;10787;53.364;-1.480;2022-08-01T08:13:10;7.18;;;1.40;;
21258;SDS011;10787;53.364;-1.480;2022-08-01T08:15:36;6.20;;;1.73;;
21258;SDS011;10787;53.364;-1.480;2022-08-01T08:18:02;4.55;;;1.75;;
21258;SDS011;10787;53.364;-1.480;2022-08-01T08:20:29;3.42;;;1.40;;
21258;SDS011;10787;53.364;-1.480;2022-08-01T08:22:56;2.97;;;1.33;;
21258;SDS011;10787;53.364;-1.480;2022-08-01T08:25:25;3.05;;;1.35;;
21258;SDS011;10787;53.364;-1.480;2022-08-01T08:27:52;4.30;;;1.60;;
21258;SDS011;10787;53.364;-1.480;2022-08-01T08:30:18;3.30;;;1.23;;
21258;SDS011;10787;53.364;-1.480;2022-08-01T08:32:44;4.57;;;1.65;;
21258;SDS011;10787;53.364;-1.480;2022-08-01T08:35:10;4.22;;;1.45;;
21258;SDS011;10787;53.364;-1.480;2022-08-01T08:37:36;3.55;;;1.30;;
21258;SDS011;10787;53.364;-1.480;2022-08-01T08:40:03;3.13;;;1.30;;
21258;SDS011;10787;53.364;-1.480;2022-08-01T08:42:30;4.63;;;1.30;;
21258;SDS011;10787;53.364;-1.480;2022-08-01T08:44:56;2.40;;;1.25;;
21258;SDS011;10787;53.364;-1.480;2022-08-01T08:47:22;3.28;;;1.20;;
21258;SDS011;10787;53.364;-1.480;2022-08-01T08:49:53;4.22;;;1.23;;
21258;SDS011;10787;53.364;-1.480;2022-08-01T08:52:21;3.10;;;1.20;;
21258;SDS011;10787;53.364;-1.480;2022-08-01T08:54:48;4.45;;;1.45;;
21258;SDS011;10787;53.364;-1.480;2022-08-01T08:57:15;5.10;;;1.40;;
21258;SDS011;10787;53.364;-1.480;2022-08-01T08:59:43;4.10;;;1.58;;
21258;SDS011;10787;53.364;-1.480;2022-08-01T09:02:09;3.00;;;1.27;;
21258;SDS011;10787;53.364;-1.480;2022-08-01T09:04:36;1.63;;;1.10;;
21258;SDS011;10787;53.364;-1.480;2022-08-01T09:07:04;3.55;;;1.30;;
21258;SDS011;10787;53.364;-1.480;2022-08-01T09:09:30;3.33;;;1.35;;
21258;SDS011;10787;53.364;-1.480;2022-08-01T09:11:57;2.15;;;1.17;;
21258;SDS011;10787;53.364;-1.480;2022-08-01T09:14:24;3.20;;;1.58;;
21258;SDS011;10787;53.364;-1.480;2022-08-01T09:17:05;6.72;;;1.35;;
21258;SDS011;10787;53.364;-1.480;2022-08-01T09:19:37;2.78;;;1.40;;
21258;SDS011;10787;53.364;-1.480;2022-08-01T09:22:06;2.35;;;1.30;;
21258;SDS011;10787;53.364;-1.480;2022-08-01T09:24:33;2.03;;;1.20;;
21258;SDS011;10787;53.364;-1.480;2022-08-01T09:27:01;2.53;;;1.30;;
21258;SDS011;10787;53.364;-1.480;2022-08-01T09:29:41;2.40;;;1.23;;
21258;SDS011;10787;53.364;-1.480;2022-08-01T09:32:07;3.83;;;1.45;;
21258;SDS011;10787;53.364;-1.480;2022-08-01T09:34:33;4.20;;;1.38;;
21258;SDS011;10787;53.364;-1.480;2022-08-01T09:37:00;2.83;;;1.02;;
21258;SDS011;10787;53.364;-1.480;2022-08-01T09:39:34;4.20;;;1.30;;
21258;SDS011;10787;53.364;-1.480;2022-08-01T09:42:24;2.17;;;1.20;;
21258;SDS011;10787;53.364;-1.480;2022-08-01T09:44:52;2.67;;;1.40;;
21258;SDS011;10787;53.364;-1.480;2022-08-01T09:47:18;3.88;;;1.30;;
21258;SDS011;10787;53.364;-1.480;2022-08-01T09:49:52;3.08;;;1.40;;
21258;SDS011;10787;53.364;-1.480;2022-08-01T09:52:20;3.00;;;1.23;;
21258;SDS011;10787;53.364;-1.480;2022-08-01T09:55:04;2.40;;;1.23;;
21258;SDS011;10787;53.364;-1.480;2022-08-01T09:57:31;1.90;;;1.25;;
21258;SDS011;10787;53.364;-1.480;2022-08-01T09:59:58;1.92;;;1.20;;
21258;SDS011;10787;53.364;-1.480;2022-08-01T10:04:57;3.95;;;1.27;;
21258;SDS011;10787;53.364;-1.480;2022-08-01T10:07:24;2.08;;;1.30;;
21258;SDS011;10787;53.364;-1.480;2022-08-01T10:09:49;2.53;;;1.33;;
21258;SDS011;10787;53.364;-1.480;2022-08-01T10:12:16;2.33;;;1.42;;
21258;SDS011;10787;53.364;-1.480;2022-08-01T10:14:45;2.95;;;1.30;;
21258;SDS011;10787;53.364;-1.480;2022-08-01T10:17:15;2.47;;;1.50;;
21258;SDS011;10787;53.364;-1.480;2022-08-01T10:19:42;2.08;;;1.25;;
21258;SDS011;10787;53.364;-1.480;2022-08-01T10:22:09;4.70;;;1.73;;
21258;SDS011;10787;53.364;-1.480;2022-08-01T10:24:39;2.50;;;1.50;;
21258;SDS011;10787;53.364;-1.480;2022-08-01T10:27:09;2.33;;;1.30;;
21258;SDS011;10787;53.364;-1.480;2022-08-01T10:29:37;3.22;;;1.52;;
21258;SDS011;10787;53.364;-1.480;2022-08-01T10:32:06;1.58;;;1.10;;
21258;SDS011;10787;53.364;-1.480;2022-08-01T10:34:34;4.35;;;1.42;;
21258;SDS011;10787;53.364;-1.480;2022-08-01T10:37:01;2.63;;;1.17;;
21258;SDS011;10787;53.364;-1.480;2022-08-01T10:39:28;4.03;;;1.20;;
21258;SDS011;10787;53.364;-1.480;2022-08-01T10:41:56;2.58;;;1.38;;
21258;SDS011;10787;53.364;-1.480;2022-08-01T10:44:25;3.08;;;1.15;;
21258;SDS011;10787;53.364;-1.480;2022-08-01T10:47:02;3.08;;;1.50;;
21258;SDS011;10787;53.364;-1.480;2022-08-01T10:49:34;2.15;;;1.27;;
21258;SDS011;10787;53.364;-1.480;2022-08-01T10:52:02;2.03;;;1.35;;
21258;SDS011;10787;53.364;-1.480;2022-08-01T10:54:28;1.95;;;1.20;;
21258;SDS011;10787;53.364;-1.480;2022-08-01T10:56:54;3.75;;;1.33;;
21258;SDS011;10787;53.364;-1.480;2022-08-01T10:59:26;2.53;;;1.40;;
21258;SDS011;10787;53.364;-1.480;2022-08-01T11:01:57;2.83;;;1.40;;
21258;SDS011;10787;53.364;-1.480;2022-08-01T11:10:19;3.13;;;1.50;;
21258;SDS011;10787;53.364;-1.480;2022-08-01T11:12:50;2.45;;;1.20;;
21258;SDS011;10787;53.364;-1.480;2022-08-01T11:15:17;1.75;;;1.30;;
21258;SDS011;10787;53.364;-1.480;2022-08-01T11:17:51;3.28;;;1.52;;
21258;SDS011;10787;53.364;-1.480;2022-08-01T11:20:25;2.97;;;1.30;;
21258;SDS011;10787;53.364;-1.480;2022-08-01T11:30:44;3.22;;;1.40;;
21258;SDS011;10787;53.364;-1.480;2022-08-01T11:33:11;2.75;;;1.40;;
21258;SDS011;10787;53.364;-1.480;2022-08-01T11:41:24;4.05;;;1.65;;
21258;SDS011;10787;53.364;-1.480;2022-08-01T11:49:24;3.47;;;1.45;;
21258;SDS011;10787;53.364;-1.480;2022-08-01T11:52:26;2.67;;;1.40;;
21258;SDS011;10787;53.364;-1.480;2022-08-01T11:54:50;3.13;;;1.40;;
21258;SDS011;10787;53.364;-1.480;2022-08-01T11:59:50;3.30;;;1.33;;
21258;SDS011;10787;53.364;-1.480;2022-08-01T12:02:22;2.00;;;1.05;;
21258;SDS011;10787;53.364;-1.480;2022-08-01T12:04:57;1.40;;;1.20;;
21258;SDS011;10787;53.364;-1.480;2022-08-01T12:07:26;3.15;;;1.30;;
21258;SDS011;10787;53.364;-1.480;2022-08-01T12:09:57;1.60;;;1.05;;
21258;SDS011;10787;53.364;-1.480;2022-08-01T12:12:30;2.05;;;1.20;;
21258;SDS011;10787;53.364;-1.480;2022-08-01T12:14:57;2.50;;;1.02;;
21258;SDS011;10787;53.364;-1.480;2022-08-01T12:17:29;2.03;;;1.20;;
21258;SDS011;10787;53.364;-1.480;2022-08-01T12:20:01;1.90;;;1.00;;
21258;SDS011;10787;53.364;-1.480;2022-08-01T12:22:28;2.90;;;1.25;;
21258;SDS011;10787;53.364;-1.480;2022-08-01T12:24:55;2.47;;;1.30;;
21258;SDS011;10787;53.364;-1.480;2022-08-01T12:27:28;4.13;;;1.55;;
21258;SDS011;10787;53.364;-1.480;2022-08-01T12:29:55;3.03;;;1.30;;
21258;SDS011;10787;53.364;-1.480;2022-08-01T12:34:57;2.85;;;1.30;;
21258;SDS011;10787;53.364;-1.480;2022-08-01T12:37:52;4.00;;;1.25;;
21258;SDS011;10787;53.364;-1.480;2022-08-01T12:40:21;2.97;;;1.35;;
21258;SDS011;10787;53.364;-1.480;2022-08-01T12:42:49;2.92;;;1.30;;
21258;SDS011;10787;53.364;-1.480;2022-08-01T12:45:27;2.38;;;1.15;;
21258;SDS011;10787;53.364;-1.480;2022-08-01T12:48:14;2.10;;;1.40;;
21258;SDS011;10787;53.364;-1.480;2022-08-01T12:50:42;1.65;;;1.35;;
21258;SDS011;10787;53.364;-1.480;2022-08-01T12:53:12;3.95;;;1.30;;
21258;SDS011;10787;53.364;-1.480;2022-08-01T12:55:44;2.67;;;1.50;;
21258;SDS011;10787;53.364;-1.480;2022-08-01T12:58:15;2.20;;;1.50;;
21258;SDS011;10787;53.364;-1.480;2022-08-01T13:00:43;1.67;;;1.38;;
21258;SDS011;10787;53.364;-1.480;2022-08-01T13:03:17;3.58;;;1.40;;
21258;SDS011;10787;53.364;-1.480;2022-08-01T13:05:45;4.28;;;1.55;;
21258;SDS011;10787;53.364;-1.480;2022-08-01T13:08:12;2.95;;;1.55;;
21258;SDS011;10787;53.364;-1.480;2022-08-01T13:10:40;2.83;;;1.60;;
21258;SDS011;10787;53.364;-1.480;2022-08-01T13:13:07;3.67;;;1.60;;
21258;SDS011;10787;53.364;-1.480;2022-08-01T13:15:34;4.30;;;1.50;;
21258;SDS011;10787;53.364;-1.480;2022-08-01T13:18:24;4.13;;;1.50;;
21258;SDS011;10787;53.364;-1.480;2022-08-01T13:23:41;3.38;;;1.40;;
21258;SDS011;10787;53.364;-1.480;2022-08-01T13:29:37;2.75;;;1.30;;
21258;SDS011;10787;53.364;-1.480;2022-08-01T13:32:17;2.50;;;1.40;;
21258;SDS011;10787;53.364;-1.480;2022-08-01T13:34:44;2.50;;;1.40;;
21258;SDS011;10787;53.364;-1.480;2022-08-01T13:37:10;2.38;;;1.20;;
21258;SDS011;10787;53.364;-1.480;2022-08-01T13:39:36;1.90;;;1.13;;
21258;SDS011;10787;53.364;-1.480;2022-08-01T13:42:13;2.22;;;1.20;;
21258;SDS011;10787;53.364;-1.480;2022-08-01T13:44:40;1.88;;;1.38;;
21258;SDS011;10787;53.364;-1.480;2022-08-01T13:47:07;1.75;;;1.30;;
21258;SDS011;10787;53.364;-1.480;2022-08-01T13:49:33;3.33;;;1.25;;
21258;SDS011;10787;53.364;-1.480;2022-08-01T13:52:00;1.83;;;1.35;;
21258;SDS011;10787;53.364;-1.480;2022-08-01T13:54:26;3.08;;;1.33;;
21258;SDS011;10787;53.364;-1.480;2022-08-01T13:56:53;2.67;;;1.30;;
21258;SDS011;10787;53.364;-1.480;2022-08-01T13:59:19;1.80;;;1.30;;
21258;SDS011;10787;53.364;-1.480;2022-08-01T14:01:45;2.55;;;1.48;;
21258;SDS011;10787;53.364;-1.480;2022-08-01T14:04:11;1.70;;;1.20;;
21258;SDS011;10787;53.364;-1.480;2022-08-01T14:06:38;2.58;;;1.23;;
21258;SDS011;10787;53.364;-1.480;2022-08-01T14:09:04;2.55;;;1.20;;
21258;SDS011;10787;53.364;-1.480;2022-08-01T14:11:30;1.90;;;1.80;;
21258;SDS011;10787;53.364;-1.480;2022-08-01T14:13:56;1.98;;;1.10;;
21258;SDS011;10787;53.364;-1.480;2022-08-01T14:16:23;2.53;;;1.33;;
21258;SDS011;10787;53.364;-1.480;2022-08-01T14:18:48;2.70;;;1.40;;
21258;SDS011;10787;53.364;-1.480;2022-08-01T14:21:15;3.08;;;1.35;;
21258;SDS011;10787;53.364;-1.480;2022-08-01T14:23:41;2.90;;;1.33;;
21258;SDS011;10787;53.364;-1.480;2022-08-01T14:26:10;2.38;;;1.20;;
21258;SDS011;10787;53.364;-1.480;2022-08-01T14:28:36;2.95;;;1.45;;
21258;SDS011;10787;53.364;-1.480;2022-08-01T14:31:03;2.17;;;1.55;;
21258;SDS011;10787;53.364;-1.480;2022-08-01T14:33:31;2.55;;;1.30;;
21258;SDS011;10787;53.364;-1.480;2022-08-01T14:35:57;1.73;;;1.30;;
21258;SDS011;10787;53.364;-1.480;2022-08-01T14:38:23;2.25;;;1.40;;
21258;SDS011;10787;53.364;-1.480;2022-08-01T14:40:49;1.80;;;1.50;;
21258;SDS011;10787;53.364;-1.480;2022-08-01T14:43:18;2.67;;;1.60;;
21258;SDS011;10787;53.364;-1.480;2022-08-01T14:45:44;3.15;;;1.50;;
21258;SDS011;10787;53.364;-1.480;2022-08-01T14:48:14;1.90;;;1.30;;
21258;SDS011;10787;53.364;-1.480;2022-08-01T14:50:43;2.95;;;1.67;;
21258;SDS011;10787;53.364;-1.480;2022-08-01T14:53:09;3.33;;;1.40;;
21258;SDS011;10787;53.364;-1.480;2022-08-01T14:55:35;1.80;;;1.30;;
21258;SDS011;10787;53.364;-1.480;2022-08-01T14:58:01;3.42;;;1.30;;
21258;SDS011;10787;53.364;-1.480;2022-08-01T15:00:28;1.73;;;1.30;;
21258;SDS011;10787;53.364;-1.480;2022-08-01T15:02:54;1.90;;;1.33;;
21258;SDS011;10787;53.364;-1.480;2022-08-01T15:05:20;3.08;;;1.33;;
21258;SDS011;10787;53.364;-1.480;2022-08-01T15:07:46;2.63;;;1.83;;
21258;SDS011;10787;53.364;-1.480;2022-08-01T15:10:12;2.65;;;1.35;;
21258;SDS011;10787;53.364;-1.480;2022-08-01T15:12:37;1.27;;;1.13;;
21258;SDS011;10787;53.364;-1.480;2022-08-01T15:15:03;1.58;;;1.27;;
21258;SDS011;10787;53.364;-1.480;2022-08-01T15:17:31;2.45;;;1.50;;
21258;SDS011;10787;53.364;-1.480;2022-08-01T15:19:58;3.90;;;1.50;;
21258;SDS011;10787;53.364;-1.480;2022-08-01T15:22:27;3.60;;;1.40;;
21258;SDS011;10787;53.364;-1.480;2022-08-01T15:24:54;1.35;;;1.23;;
21258;SDS011;10787;53.364;-1.480;2022-08-01T15:27:22;1.85;;;1.33;;
21258;SDS011;10787;53.364;-1.480;2022-08-01T15:29:48;3.10;;;1.40;;
21258;SDS011;10787;53.364;-1.480;2022-08-01T15:32:14;3.70;;;1.35;;